Data for 07/17/2013

Time Sea-Level Adjusted Pressure Absolute Pressure Temperature Relative Humidity Dew Point   
(mb) (inHg) (mb) (inHg) (C) (F) (%) (C) (F)
00:05 1025 30.27 854 25.22 14.7 58.5 71 9.5 49.1
00:10 1025 30.27 854 25.22 14.7 58.4 71 9.5 49.2
00:15 1025 30.27 854 25.22 14.6 58.3 71 9.5 49.1
00:20 1025 30.27 854 25.22 14.5 58.1 72 9.5 49.2
00:25 1025 30.27 854 25.22 14.5 58.1 72 9.5 49.1
00:30 1025 30.27 854 25.22 14.5 58.1 72 9.6 49.3
00:35 1025 30.27 854 25.22 14.4 58 72 9.6 49.2
00:40 1025 30.27 854 25.22 14.5 58 72 9.6 49.2
00:45 1025 30.27 854 25.22 14.4 58 72 9.6 49.2
00:50 1025 30.27 854 25.22 14.4 57.9 73 9.6 49.3
00:55 1025 30.27 854 25.22 14.4 57.9 73 9.6 49.3
01:00 1025 30.27 854 25.22 14.3 57.8 73 9.6 49.3
01:05 1025 30.27 854 25.22 14.3 57.8 73 9.7 49.4
01:10 1025 30.27 854 25.22 14.3 57.8 73 9.6 49.3
01:15 1025 30.27 854 25.22 14.3 57.8 73 9.6 49.3
01:20 1025 30.27 854 25.22 14.3 57.8 73 9.6 49.4
01:25 1025 30.27 854 25.22 14.3 57.8 73 9.7 49.4
01:30 1025 30.27 854 25.22 14.3 57.8 73 9.7 49.4
01:35 1025 30.27 854 25.22 14.3 57.8 74 9.7 49.4
01:40 1025 30.27 854 25.22 14.3 57.7 74 9.7 49.4
01:45 1025 30.27 854 25.22 14.3 57.7 74 9.7 49.4
01:50 1025 30.27 854 25.22 14.3 57.7 74 9.7 49.5
01:55 1025 30.27 854 25.22 14.3 57.8 74 9.7 49.5
02:00 1025 30.27 854 25.22 14.3 57.7 74 9.7 49.5
02:05 1025 30.27 854 25.22 14.3 57.7 74 9.7 49.5
02:10 1025 30.27 854 25.22 14.3 57.7 74 9.7 49.5
02:15 1025 30.27 854 25.22 14.3 57.8 74 9.8 49.6
02:20 1025 30.27 854 25.22 14.4 57.8 74 9.7 49.5
02:25 1025 30.27 854 25.22 14.3 57.8 74 9.8 49.6
02:30 1024 30.24 854 25.22 14.3 57.7 74 9.8 49.6
02:35 1024 30.24 854 25.22 14.3 57.7 74 9.8 49.7
02:40 1024 30.24 854 25.22 14.3 57.7 74 9.8 49.6
02:45 1024 30.24 853 25.19 14.2 57.6 75 9.8 49.7
02:50 1024 30.24 854 25.22 14.3 57.7 76 10 50.1
02:55 1025 30.27 854 25.22 14.3 57.7 75 9.9 49.9
03:00 1024 30.24 854 25.22 14.2 57.6 75 9.9 49.8
03:05 1024 30.24 853 25.19 14.1 57.5 75 9.9 49.8
03:10 1024 30.24 853 25.19 14.1 57.4 75 9.8 49.7
03:15 1024 30.24 854 25.22 14.1 57.4 75 9.8 49.7
03:20 1024 30.24 853 25.19 14.1 57.4 76 9.9 49.8
03:25 1024 30.24 853 25.19 14 57.2 76 9.9 49.8
03:30 1024 30.24 853 25.19 13.9 57.1 76 9.8 49.7
03:35 1024 30.24 853 25.19 14 57.1 76 9.9 49.7
03:40 1024 30.24 853 25.19 13.9 57.1 76 9.9 49.7
03:45 1024 30.24 853 25.19 14 57.1 76 9.8 49.6
03:50 1024 30.24 853 25.19 14.1 57.3 75 9.8 49.6
03:55 1023 30.21 853 25.19 14.1 57.4 75 9.8 49.7
04:00 1023 30.21 853 25.19 14.1 57.3 76 9.9 49.8
04:05 1023 30.21 852 25.16 14 57.2 76 9.8 49.6
04:10 1023 30.21 852 25.16 14 57.2 76 9.9 49.7
04:15 1023 30.21 852 25.16 14 57.2 76 9.8 49.7
04:20 1023 30.21 853 25.19 14.1 57.3 76 9.8 49.7
04:25 1023 30.21 853 25.19 14.1 57.4 75 9.8 49.7
04:30 1023 30.21 852 25.16 14.1 57.4 75 9.8 49.7
04:35 1023 30.21 852 25.16 14.2 57.5 75 9.8 49.7
04:40 1023 30.21 852 25.16 14.2 57.6 74 9.8 49.6
04:45 1023 30.21 853 25.19 14.4 57.9 74 9.8 49.7
04:50 1023 30.21 853 25.19 14.5 58 74 9.8 49.7
04:55 1023 30.21 853 25.19 14.5 58 74 9.9 49.7
05:00 1023 30.21 853 25.19 14.4 57.9 74 9.8 49.7
05:05 1023 30.21 852 25.16 14.4 57.9 74 9.8 49.7
05:10 1023 30.21 852 25.16 14.4 58 74 9.8 49.7
05:15 1023 30.21 852 25.16 14.5 58.1 73 9.8 49.7
05:20 1023 30.21 852 25.16 14.6 58.2 73 9.9 49.7
05:25 1023 30.21 852 25.16 14.6 58.2 73 9.8 49.7
05:30 1023 30.21 852 25.16 14.5 58.1 73 9.8 49.7
05:35 1023 30.21 852 25.16 14.5 58 73 9.8 49.6
05:40 1023 30.21 853 25.19 14.5 58.1 73 9.8 49.7
05:45 1024 30.24 853 25.19 14.5 58.1 74 9.9 49.8
05:50 1024 30.24 853 25.19 14.5 58 74 9.9 49.8
05:55 1024 30.24 853 25.19 14.4 58 74 10 50
06:00 1024 30.24 853 25.19 14.4 57.9 74 10 49.9
06:05 1024 30.24 853 25.19 14.5 58.1 74 9.9 49.9
06:10 1024 30.24 853 25.19 14.6 58.2 74 10 49.9
06:15 1024 30.24 853 25.19 14.6 58.4 74 10 50.1
06:20 1024 30.24 853 25.19 14.8 58.6 73 10.1 50.1
06:25 1024 30.24 853 25.19 14.9 58.7 73 10.1 50.2
06:30 1024 30.24 853 25.19 14.9 58.9 73 10.2 50.3
06:35 1024 30.24 853 25.19 15.1 59.1 72 10.2 50.3
06:40 1024 30.24 853 25.19 15.5 60 71 10.3 50.5
06:45 1024 30.24 853 25.19 16.1 61 68 10.3 50.5
06:50 1024 30.24 853 25.19 16.2 61.2 68 10.4 50.8
06:55 1024 30.24 853 25.19 16.1 61.1 68 10.2 50.4
07:00 1024 30.24 853 25.19 15.9 60.6 69 10.4 50.7
07:05 1024 30.24 853 25.19 15.7 60.3 69 10.2 50.3
07:10 1024 30.24 853 25.19 15.9 60.6 69 10.2 50.4
07:15 1024 30.24 853 25.19 16.2 61.2 68 10.4 50.6
07:20 1024 30.24 853 25.19 16.5 61.7 67 10.5 50.9
07:25 1024 30.24 853 25.19 16.8 62.2 67 10.6 51.1
07:30 1024 30.24 854 25.22 16.7 62 67 10.7 51.2
07:35 1024 30.24 854 25.22 16.8 62.2 66 10.6 51.1
07:40 1024 30.24 853 25.19 16.9 62.3 65 10.2 50.4
07:45 1024 30.24 854 25.22 17.2 62.9 64 10.4 50.8
07:50 1024 30.24 853 25.19 17.5 63.6 62 10.4 50.7
07:55 1024 30.24 854 25.22 17.7 63.9 62 10.5 51
08:00 1024 30.24 853 25.19 17.7 63.8 62 10.4 50.7
08:05 1024 30.24 853 25.19 17.9 64.2 61 10.4 50.7
08:10 1024 30.24 853 25.19 18.2 64.8 60 10.4 50.7
08:15 1024 30.24 853 25.19 18.6 65.5 58 10.4 50.7
08:20 1024 30.24 853 25.19 19.4 66.9 56 10.5 50.9
08:25 1024 30.24 853 25.19 19.3 66.7 58 11 51.8
08:30 1024 30.24 853 25.19 19.9 67.8 56 10.9 51.5
08:35 1024 30.24 853 25.19 20.8 69.5 52 10.8 51.5
08:40 1024 30.24 853 25.19 21.1 70 50 10.4 50.8
08:45 1024 30.24 853 25.19 21.8 71.2 49 10.8 51.4
08:50 1024 30.24 853 25.19 21.4 70.5 49 10.3 50.6
08:55 1024 30.24 853 25.19 21.2 70.1 50 10.4 50.8
09:00 1024 30.24 853 25.19 21 69.7 50 10.4 50.8
09:05 1024 30.24 853 25.19 20.6 69.1 53 10.7 51.3
09:10 1024 30.24 853 25.19 20.5 68.9 52 10.5 51
09:15 1024 30.24 853 25.19 20.9 69.7 51 10.6 51.1
09:20 1024 30.24 853 25.19 21.3 70.4 51 10.8 51.5
09:25 1024 30.24 853 25.19 22 71.5 48 10.6 51.1
09:30 1024 30.24 853 25.19 22 71.5 50 11.4 52.4
09:35 1024 30.24 853 25.19 22 71.7 49 10.9 51.7
09:40 1024 30.24 853 25.19 22.4 72.3 49 11.2 52.2
09:45 1024 30.24 853 25.19 22.5 72.5 47 10.8 51.4
09:50 1024 30.24 853 25.19 22.4 72.3 49 11.3 52.4
09:55 1024 30.24 853 25.19 22.6 72.8 46 10.7 51.3
10:00 1024 30.24 853 25.19 23.1 73.6 46 10.9 51.7
10:05 1024 30.24 853 25.19 23.7 74.7 44 10.9 51.7
10:10 1024 30.24 853 25.19 23.2 73.8 46 11 51.9
10:15 1024 30.24 853 25.19 23 73.3 46 10.9 51.6
10:20 1024 30.24 853 25.19 23.2 73.8 46 11 51.8
10:25 1024 30.24 853 25.19 23.9 74.9 43 10.9 51.6
10:30 1024 30.24 853 25.19 23.8 74.8 46 11.7 53
10:35 1024 30.24 853 25.19 22.7 72.8 49 11.6 53
10:40 1024 30.24 853 25.19 22.7 72.9 46 10.7 51.2
10:45 1024 30.24 853 25.19 24.4 75.8 42 10.7 51.2
10:50 1023 30.21 853 25.19 24.1 75.3 45 11.6 52.9
10:55 1023 30.21 853 25.19 23.6 74.4 45 11.2 52.2
11:00 1023 30.21 852 25.16 23.5 74.2 44 10.8 51.4
11:05 1023 30.21 852 25.16 24.5 76.2 43 11.4 52.5
11:10 1023 30.21 852 25.16 24.4 75.9 43 11 51.9
11:15 1023 30.21 852 25.16 25.6 78 41 11.4 52.6
11:20 1023 30.21 852 25.16 25.8 78.4 41 11.7 53.1
11:25 1023 30.21 852 25.16 25.6 78.1 41 11.7 53
11:30 1023 30.21 852 25.16 25.9 78.7 39 11.2 52.2
11:35 1023 30.21 852 25.16 26.2 79.2 38 11.2 52.1
11:40 1023 30.21 852 25.16 26.6 79.9 41 12.3 54.2
11:45 1023 30.21 852 25.16 26.4 79.5 38 11.3 52.3
11:50 1023 30.21 852 25.16 26.9 80.4 37 11.3 52.3
11:55 1023 30.21 852 25.16 26.6 79.8 39 11.9 53.4
12:00 1023 30.21 852 25.16 26.4 79.5 39 11.7 53
12:05 1023 30.21 852 25.16 27.2 80.9 37 11.3 52.3
12:10 1023 30.21 852 25.16 27.3 81.1 39 12.5 54.4
12:15 1023 30.21 852 25.16 27.6 81.7 36 11.4 52.4
12:20 1023 30.21 852 25.16 27.4 81.3 39 12.3 54.1
12:25 1023 30.21 852 25.16 26.4 79.5 42 12.5 54.5
12:30 1023 30.21 852 25.16 26.3 79.3 39 11.6 52.9
12:35 1023 30.21 852 25.16 27.4 81.3 39 12.5 54.5
12:40 1022 30.18 852 25.16 27.7 81.9 38 12.5 54.6
12:45 1022 30.18 852 25.16 27.4 81.3 38 12.1 53.8
12:50 1022 30.18 852 25.16 27.4 81.4 38 12.3 54.1
12:55 1022 30.18 851 25.13 26.6 79.9 37 11 51.9
13:00 1022 30.18 851 25.13 26.9 80.4 37 11.2 52.1
13:05 1022 30.18 851 25.13 27.1 80.7 36 11 51.8
13:10 1022 30.18 851 25.13 28.2 82.8 32 10.5 50.9
13:15 1022 30.18 851 25.13 29.1 84.4 33 11.5 52.8
13:20 1022 30.18 851 25.13 28.7 83.6 34 11.6 52.9
13:25 1022 30.18 851 25.13 29.5 85.1 34 12.4 54.3
13:30 1022 30.18 851 25.13 28.8 83.9 35 12.3 54.2
13:35 1022 30.18 851 25.13 28 82.5 35 11.6 52.8
13:40 1022 30.18 851 25.13 28.5 83.4 36 12.2 53.9
13:45 1022 30.18 851 25.13 28.1 82.6 35 11.3 52.4
13:50 1022 30.18 851 25.13 29.1 84.3 34 11.8 53.2
13:55 1022 30.18 851 25.13 29.4 84.8 34 12.1 53.8
14:00 1022 30.18 851 25.13 29.4 85 31 11 51.8
14:05 1022 30.18 851 25.13 29.4 84.9 33 11.9 53.5
14:10 1022 30.18 851 25.13 29.7 85.4 32 11.6 52.9
14:15 1022 30.18 851 25.13 30.2 86.3 31 11.5 52.7
14:20 1022 30.18 851 25.13 28.9 84 32 10.8 51.4
14:25 1021 30.15 851 25.13 28.7 83.7 32 10.8 51.5
14:30 1021 30.15 851 25.13 28.4 83.1 33 10.8 51.4
14:35 1021 30.15 851 25.13 28.7 83.7 32 10.7 51.2
14:40 1021 30.15 850 25.1 28.7 83.6 32 10.7 51.2
14:45 1021 30.15 850 25.1 28.9 83.9 31 10.4 50.8
14:50 1021 30.15 850 25.1 29.2 84.5 31 10.5 50.9
14:55 1021 30.15 850 25.1 28.9 84 32 11 51.8
15:00 1021 30.15 850 25.1 29.4 85 30 10.3 50.6
15:05 1020 30.12 850 25.1 29.9 85.9 27 9.1 48.3
15:10 1020 30.12 850 25.1 30.3 86.5 26 9.1 48.3
15:15 1020 30.12 850 25.1 31 87.8 26 9.5 49.1
15:20 1021 30.15 850 25.1 31.2 88.2 30 11.9 53.4
15:25 1021 30.15 850 25.1 30.2 86.3 32 12 53.6
15:30 1021 30.15 850 25.1 29.6 85.2 33 12 53.6
15:35 1021 30.15 850 25.1 29 84.2 33 11.5 52.8
15:40 1021 30.15 850 25.1 28.9 84 33 11.1 52
15:45 1021 30.15 850 25.1 29.3 84.7 34 11.9 53.5
15:50 1021 30.15 850 25.1 29.4 84.9 31 11 51.8
15:55 1021 30.15 850 25.1 28.9 84 32 10.8 51.5
16:00 1020 30.12 850 25.1 29 84.2 30 9.9 49.8
16:05 1020 30.12 850 25.1 28.8 83.9 31 10.2 50.4
16:10 1020 30.12 850 25.1 28.9 84 34 11.6 52.9
16:15 1021 30.15 850 25.1 28.2 82.8 35 11.7 53
16:20 1021 30.15 850 25.1 27.7 81.9 37 12 53.6
16:25 1021 30.15 850 25.1 27.5 81.5 37 11.6 52.9
16:30 1021 30.15 850 25.1 27.4 81.3 36 11.4 52.5
16:35 1021 30.15 850 25.1 27.3 81.1 37 11.5 52.7
16:40 1021 30.15 850 25.1 27.1 80.7 38 12 53.5
16:45 1021 30.15 850 25.1 26.7 80.1 37 11.1 52
16:50 1021 30.15 850 25.1 26.5 79.7 36 10.4 50.7
16:55 1021 30.15 850 25.1 26.4 79.5 39 11.4 52.6
17:00 1022 30.18 851 25.13 26 78.9 40 11.7 53.1
17:05 1022 30.18 851 25.13 25.8 78.5 40 11.5 52.8
17:10 1023 30.21 852 25.16 25.9 78.6 51 15.1 59.1
17:15 1023 30.21 853 25.19 24.1 75.4 56 15 59
17:20 1024 30.24 853 25.19 18.7 65.7 72 13.7 56.7
17:25 1024 30.24 853 25.19 18.1 64.6 65 11.5 52.8
17:30 1024 30.24 854 25.22 18.6 65.6 67 12.5 54.5
17:35 1024 30.24 853 25.19 18.1 64.5 71 12.7 54.8
17:40 1024 30.24 853 25.19 17.8 64 70 12.3 54.2
17:45 1024 30.24 853 25.19 17.9 64.1 71 12.6 54.8
17:50 1024 30.24 854 25.22 17.6 63.6 74 13 55.3
17:55 1025 30.27 854 25.22 17.5 63.4 75 13 55.4
18:00 1025 30.27 854 25.22 17.3 63.1 78 13.4 56.1
18:05 1025 30.27 854 25.22 16.9 62.5 80 13.6 56.4
18:10 1025 30.27 854 25.22 16.6 61.8 83 13.7 56.7
18:15 1024 30.24 854 25.22 16.4 61.5 85 13.8 56.8
18:20 1024 30.24 853 25.19 16.4 61.6 82 13.4 56.1
18:25 1023 30.21 852 25.16 16.6 62 81 13.4 56.2
18:30 1023 30.21 852 25.16 16.9 62.3 77 12.8 55.1
18:35 1022 30.18 852 25.16 17.1 62.8 76 12.8 55.1
18:40 1022 30.18 852 25.16 17.2 62.9 79 13.5 56.2
18:45 1023 30.21 852 25.16 17 62.6 80 13.6 56.6
18:50 1023 30.21 852 25.16 17 62.7 79 13.3 56
18:55 1023 30.21 852 25.16 17.2 63 77 13.2 55.8
19:00 1023 30.21 852 25.16 17.5 63.5 75 13.2 55.7
19:05 1023 30.21 852 25.16 17.5 63.6 76 13.2 55.8
19:10 1023 30.21 852 25.16 17.6 63.7 74 13 55.5
19:15 1023 30.21 852 25.16 17.8 64 74 13.1 55.6
19:20 1023 30.21 852 25.16 17.7 63.9 75 13.3 55.9
19:25 1023 30.21 852 25.16 17.8 64.1 73 12.9 55.2
19:30 1023 30.21 852 25.16 18 64.4 71 12.7 54.8
19:35 1023 30.21 852 25.16 18.1 64.6 68 12.2 54
19:40 1023 30.21 852 25.16 18.6 65.5 60 10.9 51.6
19:45 1023 30.21 852 25.16 19.1 66.4 67 12.8 55.1
19:50 1023 30.21 852 25.16 18.8 65.8 68 12.8 55.1
19:55 1023 30.21 852 25.16 18.7 65.6 67 12.6 54.7
20:00 1023 30.21 852 25.16 18.6 65.5 65 12 53.5
20:05 1023 30.21 852 25.16 18.4 65.2 67 12.3 54.1
20:10 1023 30.21 852 25.16 17.9 64.3 72 12.9 55.2
20:15 1023 30.21 852 25.16 17.3 63.2 76 13.2 55.7
20:20 1023 30.21 852 25.16 17 62.7 76 12.8 55
20:25 1023 30.21 852 25.16 17.1 62.8 75 12.7 54.8
20:30 1023 30.21 852 25.16 17.3 63.2 75 12.8 55.1
20:35 1023 30.21 852 25.16 17.3 63.1 73 12.5 54.6
20:40 1023 30.21 852 25.16 17.2 63 74 12.6 54.7
20:45 1023 30.21 852 25.16 16.8 62.3 76 12.6 54.7
20:50 1023 30.21 852 25.16 16.6 61.8 76 12.4 54.4
20:55 1023 30.21 852 25.16 16.7 62 74 12.1 53.9
21:00 1023 30.21 852 25.16 16.8 62.3 74 12.3 54.1
21:05 1023 30.21 853 25.19 16.8 62.3 75 12.4 54.3
21:10 1023 30.21 853 25.19 16.6 62 76 12.5 54.5
21:15 1023 30.21 853 25.19 16.6 61.8 76 12.4 54.4
21:20 1023 30.21 852 25.16 16.5 61.7 78 12.6 54.8
21:25 1023 30.21 852 25.16 16.5 61.7 76 12.2 54
21:30 1023 30.21 852 25.16 16.5 61.6 76 12.3 54.1
21:35 1023 30.21 852 25.16 16.3 61.4 77 12.4 54.3
21:40 1023 30.21 853 25.19 16 60.8 81 12.7 54.8
21:45 1023 30.21 853 25.19 15.8 60.4 79 12.3 54.1
21:50 1023 30.21 853 25.19 15.6 60.1 79 12.1 53.8
21:55 1024 30.24 853 25.19 15.7 60.2 78 11.9 53.5
22:00 1024 30.24 853 25.19 15.7 60.2 78 12 53.6
22:05 1024 30.24 853 25.19 15.6 60.1 79 12 53.5
22:10 1024 30.24 853 25.19 15.6 60.1 78 11.7 53.1
22:15 1024 30.24 853 25.19 15.7 60.3 78 11.9 53.5
22:20 1024 30.24 853 25.19 15.7 60.3 78 11.9 53.3
22:25 1024 30.24 853 25.19 15.6 60.1 79 12 53.5
22:30 1024 30.24 853 25.19 15.4 59.7 79 11.9 53.4
22:35 1024 30.24 853 25.19 15.5 59.8 78 11.7 53.1
22:40 1024 30.24 853 25.19 15.8 60.4 77 11.9 53.4
22:45 1024 30.24 853 25.19 15.8 60.5 77 11.9 53.4
22:50 1024 30.24 853 25.19 15.7 60.2 79 12.1 53.7
22:55 1024 30.24 853 25.19 15.5 60 78 11.8 53.2
23:00 1024 30.24 853 25.19 15.7 60.3 77 11.7 53.1
23:05 1024 30.24 853 25.19 15.6 60 79 11.9 53.5
23:10 1024 30.24 853 25.19 15.3 59.5 80 11.8 53.3
23:15 1024 30.24 853 25.19 15.4 59.7 79 11.7 53.1
23:20 1024 30.24 853 25.19 15.3 59.5 79 11.8 53.2
23:25 1024 30.24 853 25.19 15.1 59.1 82 12.1 53.7
23:30 1024 30.24 853 25.19 14.8 58.7 84 12.2 53.9
23:35 1024 30.24 853 25.19 14.6 58.3 82 11.7 53
23:40 1024 30.24 853 25.19 14.1 57.5 84 11.6 52.8
23:45 1024 30.24 853 25.19 13.9 57 85 11.4 52.6
23:50 1024 30.24 853 25.19 13.8 56.9 84 11.3 52.3
23:55 1024 30.24 853 25.19 14 57.2 84 11.3 52.3
24:00 1024 30.24 853 25.19 14 57.3 83 11.3 52.3